Time;durP1;ratioP1;P1;durP2;ratioP2;P2;SDS_P1;SDS_P2;PMS_P1;PMS_P2;Temp;Humidity;BMP_temperature;BMP_pressure;BME280_temperature;BME280_humidity;BME280_pressure;Samples;Min_cycle;Max_cycle;Signal;HPM_P1;HPM_P2
2020/12/27 00:01:01;;;;;;;3.60;2.00;;;;;;;3.98;96.19;100203.09;6004199;29;20226;-78
2020/12/27 00:04:11;;;;;;;1.30;1.30;;;;;;;3.96;97.18;100197.03;6018763;29;20186;-81
2020/12/27 00:07:16;;;;;;;1.90;1.80;;;;;;;3.99;96.82;100193.94;6017324;29;20217;-78
2020/12/27 00:10:21;;;;;;;1.80;1.80;;;;;;;3.93;96.36;100189.34;6010343;29;20306;-78
2020/12/27 00:13:25;;;;;;;1.80;1.70;;;;;;;4.00;95.92;100184.84;6007047;29;20211;-78
2020/12/27 00:16:28;;;;;;;2.23;1.70;;;;;;;3.96;96.57;100188.91;6007790;29;20247;-77
2020/12/27 00:19:32;;;;;;;2.40;2.13;;;;;;;3.90;96.95;100176.22;6009902;29;20220;-77
2020/12/27 00:22:36;;;;;;;1.97;1.87;;;;;;;3.92;97.14;100166.91;6006506;29;20224;-77
2020/12/27 00:25:39;;;;;;;3.47;2.00;;;;;;;3.86;97.95;100161.41;6007864;29;20641;-78
2020/12/27 00:28:43;;;;;;;2.27;1.70;;;;;;;3.76;98.76;100146.38;6007474;29;20207;-77
2020/12/27 00:31:49;;;;;;;2.30;2.10;;;;;;;3.73;100.00;100152.13;6008307;29;20215;-77
2020/12/27 00:34:54;;;;;;;2.13;1.80;;;;;;;3.80;98.95;100153.03;6008501;29;20209;-77
2020/12/27 00:37:57;;;;;;;3.30;1.87;;;;;;;3.80;99.04;100147.66;6008225;29;20386;-79
2020/12/27 00:41:01;;;;;;;1.77;1.77;;;;;;;3.70;98.59;100125.53;6006425;29;20218;-77
2020/12/27 00:44:07;;;;;;;3.13;2.00;;;;;;;3.88;98.47;100121.59;6007778;29;20285;-77
2020/12/27 00:47:11;;;;;;;3.57;2.50;;;;;;;3.99;98.20;100134.56;6008984;29;20206;-78
2020/12/27 00:50:15;;;;;;;3.40;2.17;;;;;;;4.05;97.99;100128.41;5990289;29;20362;-77
2020/12/27 00:53:19;;;;;;;1.93;1.83;;;;;;;4.06;98.34;100122.81;6004921;29;20214;-78
2020/12/27 00:56:25;;;;;;;3.10;1.90;;;;;;;4.02;98.55;100118.00;5994699;29;20377;-77
2020/12/27 00:59:41;;;;;;;2.37;2.13;;;;;;;3.98;99.20;100105.94;6007640;29;20356;-78
2020/12/27 01:02:48;;;;;;;3.67;2.23;;;;;;;3.94;98.69;100102.75;6006681;29;20290;-77
2020/12/27 01:06:11;;;;;;;2.87;2.40;;;;;;;3.93;97.76;100092.19;6006795;29;20216;-78
2020/12/27 01:09:16;;;;;;;2.53;2.40;;;;;;;3.91;98.80;100100.44;6007924;29;20211;-82
2020/12/27 01:12:19;;;;;;;3.07;2.70;;;;;;;3.92;98.67;100091.34;6024311;29;20216;-78
2020/12/27 01:15:23;;;;;;;2.77;2.63;;;;;;;4.03;98.83;100079.19;6008666;29;20210;-77
2020/12/27 01:18:43;;;;;;;3.83;3.10;;;;;;;4.04;98.39;100067.34;6006615;29;20208;-78
2020/12/27 01:21:47;;;;;;;2.60;2.30;;;;;;;3.96;98.89;100076.41;6001176;29;20235;-78
2020/12/27 01:24:57;;;;;;;3.07;2.80;;;;;;;4.01;98.36;100059.63;6001401;29;20688;-78
2020/12/27 01:28:01;;;;;;;3.67;3.00;;;;;;;4.02;98.85;100058.63;6010779;29;20200;-78
2020/12/27 01:31:05;;;;;;;3.00;2.80;;;;;;;4.07;98.31;100056.16;6013324;29;20303;-78
2020/12/27 01:34:15;;;;;;;6.37;3.80;;;;;;;4.04;98.61;100040.34;6000653;29;20207;-77
2020/12/27 01:37:19;;;;;;;3.60;2.50;;;;;;;3.90;98.98;100039.44;5999028;29;20303;-78
2020/12/27 01:40:27;;;;;;;3.63;2.80;;;;;;;3.93;98.46;100043.59;6006943;29;20223;-79
2020/12/27 01:43:32;;;;;;;4.17;2.50;;;;;;;3.98;97.12;100024.97;6008377;29;20605;-78
2020/12/27 01:46:41;;;;;;;2.13;1.93;;;;;;;3.93;97.13;100038.19;6007311;29;20430;-77
2020/12/27 01:49:52;;;;;;;1.90;1.90;;;;;;;3.87;96.25;100006.59;5996850;29;20211;-78
2020/12/27 01:52:55;;;;;;;1.70;1.70;;;;;;;3.88;96.90;100021.75;6006122;29;20584;-78
2020/12/27 01:56:17;;;;;;;2.60;2.40;;;;;;;3.85;97.10;100014.88;6005448;29;20598;-78
2020/12/27 01:59:27;;;;;;;2.20;2.10;;;;;;;3.80;97.10;100001.09;6005210;29;20218;-78
2020/12/27 02:02:37;;;;;;;3.03;2.80;;;;;;;4.00;96.57;100012.09;6008935;29;20207;-78
2020/12/27 02:05:49;;;;;;;4.00;2.47;;;;;;;3.96;96.78;99994.59;6022775;29;20678;-79
2020/12/27 02:08:52;;;;;;;2.10;1.70;;;;;;;4.01;97.02;99992.16;6004945;29;20728;-77
2020/12/27 02:12:06;;;;;;;1.43;1.43;;;;;;;4.10;97.08;100001.81;6011120;29;20212;-79
2020/12/27 02:15:13;;;;;;;1.90;1.80;;;;;;;3.93;97.96;99985.03;6017318;29;20205;-81
2020/12/27 02:18:35;;;;;;;2.70;1.90;;;;;;;4.10;97.03;99991.00;6019544;29;20243;-79
2020/12/27 02:21:45;;;;;;;1.80;1.80;;;;;;;4.14;96.90;99981.47;6006440;29;20318;-78
2020/12/27 02:25:03;;;;;;;4.93;1.90;;;;;;;4.23;96.23;99974.91;6009368;29;20298;-78
2020/12/27 02:28:11;;;;;;;2.37;2.00;;;;;;;4.14;97.15;99981.47;6001036;29;20660;-78
2020/12/27 02:31:15;;;;;;;2.13;2.13;;;;;;;4.08;97.94;99966.06;6004765;29;20223;-78
2020/12/27 02:34:33;;;;;;;2.60;2.40;;;;;;;4.04;97.77;99964.78;5993726;29;20668;-77
2020/12/27 02:37:37;;;;;;;4.73;2.50;;;;;;;4.09;97.88;99967.72;6010760;29;20215;-78
2020/12/27 02:40:47;;;;;;;8.10;3.03;;;;;;;4.13;97.69;99974.41;6020961;29;20230;-78
2020/12/27 02:44:17;;;;;;;3.63;2.80;;;;;;;4.08;97.60;99977.72;6002715;29;20219;-78
2020/12/27 02:47:47;;;;;;;3.30;3.00;;;;;;;4.04;98.02;99948.59;6025282;29;20290;-78
2020/12/27 02:51:13;;;;;;;3.17;2.80;;;;;;;4.14;97.50;99954.47;6014563;29;20234;-77
2020/12/27 02:54:17;;;;;;;4.40;2.80;;;;;;;4.11;98.55;99954.91;6006552;29;20250;-79
2020/12/27 02:57:22;;;;;;;6.70;3.10;;;;;;;4.14;98.03;99949.91;6009422;29;20249;-77
2020/12/27 03:00:29;;;;;;;4.60;2.73;;;;;;;4.16;97.49;99944.34;5999755;29;20227;-77
2020/12/27 03:04:11;;;;;;;2.30;2.20;;;;;;;4.19;97.35;99949.31;5977681;29;20283;-78
2020/12/27 03:07:17;;;;;;;2.07;2.00;;;;;;;4.20;97.50;99942.91;5981432;29;20263;-77
2020/12/27 03:10:42;;;;;;;2.20;2.10;;;;;;;4.16;98.52;99930.84;6003755;29;20219;-77
2020/12/27 03:13:47;;;;;;;3.80;2.30;;;;;;;4.21;98.62;99920.28;6005606;29;20207;-78
2020/12/27 03:16:50;;;;;;;2.47;2.37;;;;;;;4.19;98.10;99914.22;5997332;29;20872;-79
2020/12/27 03:20:16;;;;;;;2.47;2.40;;;;;;;3.95;98.42;99895.81;5998906;29;20242;-78
2020/12/27 03:23:34;;;;;;;4.90;2.33;;;;;;;4.26;97.47;99904.31;6023325;29;20214;-77
2020/12/27 03:26:44;;;;;;;2.50;2.33;;;;;;;4.33;97.42;99894.38;6005579;29;20296;-77
2020/12/27 03:29:48;;;;;;;2.10;2.00;;;;;;;4.27;98.25;99893.31;6005025;29;20219;-77
2020/12/27 03:32:58;;;;;;;1.90;1.90;;;;;;;4.21;98.38;99887.88;6018057;29;20216;-77
2020/12/27 03:36:08;;;;;;;1.80;1.80;;;;;;;4.24;98.42;99895.56;6005795;29;20203;-77
2020/12/27 03:39:34;;;;;;;2.07;2.00;;;;;;;4.26;98.51;99888.13;5997222;29;20299;-78
2020/12/27 03:43:09;;;;;;;3.57;1.77;;;;;;;4.32;98.55;99881.91;5980357;29;20207;-78
2020/12/27 03:46:15;;;;;;;2.50;1.90;;;;;;;4.30;98.22;99889.38;6003374;29;20655;-78
2020/12/27 03:49:38;;;;;;;2.33;1.70;;;;;;;4.29;98.49;99871.50;6003958;29;20210;-77
2020/12/27 03:53:06;;;;;;;2.93;1.80;;;;;;;4.35;98.46;99876.09;5994712;29;20214;-78
2020/12/27 03:56:30;;;;;;;1.87;1.73;;;;;;;4.34;98.19;99858.22;5998452;29;20616;-76
2020/12/27 04:00:06;;;;;;;2.50;1.67;;;;;;;4.40;97.79;99862.84;5955410;29;20218;-77
2020/12/27 04:03:43;;;;;;;1.50;1.50;;;;;;;4.37;98.17;99852.44;5997551;29;20217;-77
2020/12/27 04:06:55;;;;;;;2.40;1.50;;;;;;;4.42;98.23;99858.91;5986367;29;20230;-77
2020/12/27 04:10:10;;;;;;;1.60;1.50;;;;;;;4.62;97.24;99840.09;6002810;29;20243;-78
2020/12/27 04:13:16;;;;;;;1.50;1.40;;;;;;;4.55;96.78;99833.81;5987966;29;20668;-78
2020/12/27 04:16:26;;;;;;;1.43;1.37;;;;;;;4.62;96.74;99825.75;6003793;29;20229;-77
2020/12/27 04:19:33;;;;;;;2.07;1.50;;;;;;;4.57;96.70;99842.53;6006947;29;20211;-77
2020/12/27 04:22:49;;;;;;;1.33;1.33;;;;;;;3.76;97.37;99705.78;5988727;29;20764;-76
2020/12/27 04:25:53;;;;;;;1.50;1.40;;;;;;;4.59;96.80;99840.50;5991685;29;20213;-77
2020/12/27 04:28:56;;;;;;;2.83;1.63;;;;;;;4.41;97.07;99797.00;6013711;29;20249;-81
2020/12/27 04:32:00;;;;;;;2.43;1.20;;;;;;;4.59;97.54;99829.69;6003285;29;20556;-77
2020/12/27 04:35:21;;;;;;;1.40;1.30;;;;;;;4.60;96.72;99817.81;5999346;29;20213;-77
2020/12/27 04:38:29;;;;;;;1.30;1.20;;;;;;;4.63;96.69;99811.19;5982299;29;20653;-77
2020/12/27 04:41:32;;;;;;;1.50;1.40;;;;;;;4.69;95.82;99813.91;5989611;29;20271;-77
2020/12/27 04:44:41;;;;;;;2.10;1.50;;;;;;;4.63;96.35;99814.72;5991869;29;20216;-77
2020/12/27 04:47:54;;;;;;;1.77;1.30;;;;;;;4.64;96.53;99802.88;5988870;29;20225;-77
2020/12/27 04:51:26;;;;;;;2.60;1.33;;;;;;;4.62;96.17;99810.38;5975883;29;20238;-77
2020/12/27 04:54:51;;;;;;;2.00;1.40;;;;;;;4.59;96.70;99807.25;5988469;29;20208;-78
2020/12/27 04:58:22;;;;;;;1.37;1.27;;;;;;;4.59;96.67;99807.25;5992960;29;20294;-77
2020/12/27 05:01:47;;;;;;;1.40;1.40;;;;;;;4.64;96.86;99800.19;5990486;29;20252;-77
2020/12/27 05:04:56;;;;;;;1.50;1.50;;;;;;;4.64;95.72;99794.78;5979456;29;20216;-79
2020/12/27 05:08:23;;;;;;;1.10;1.10;;;;;;;4.68;95.72;99796.03;6000077;29;20707;-78
2020/12/27 05:11:34;;;;;;;1.80;1.40;;;;;;;4.78;95.43;99791.06;5987824;29;20318;-78
2020/12/27 05:14:47;;;;;;;1.40;1.40;;;;;;;4.80;95.10;99794.38;5996461;29;20220;-77
2020/12/27 05:17:54;;;;;;;2.33;1.13;;;;;;;4.79;95.22;99778.38;6001533;29;20204;-77
2020/12/27 05:21:02;;;;;;;1.40;1.40;;;;;;;4.76;95.03;99787.75;5997071;29;20224;-77
2020/12/27 05:24:07;;;;;;;6.30;1.70;;;;;;;4.69;95.92;99780.66;5990406;29;20207;-77
2020/12/27 05:27:25;;;;;;;1.17;1.10;;;;;;;4.69;95.42;99780.66;5997947;29;20230;-78
2020/12/27 05:30:47;;;;;;;2.97;2.00;;;;;;;4.73;95.60;99787.31;6009330;29;20226;-78
2020/12/27 05:34:19;;;;;;;1.93;1.77;;;;;;;4.88;94.65;99780.69;6014550;29;20185;-76
2020/12/27 05:37:49;;;;;;;1.90;1.50;;;;;;;4.89;94.11;99792.34;6005514;29;20731;-78
2020/12/27 05:41:14;;;;;;;2.87;1.37;;;;;;;4.72;94.65;99780.25;6011152;29;20759;-76
2020/12/27 05:44:27;;;;;;;2.70;1.10;;;;;;;4.88;94.66;99777.97;6001341;29;20219;-77
2020/12/27 05:47:34;;;;;;;1.73;1.63;;;;;;;4.82;94.48;99776.13;5994685;29;20319;-77
2020/12/27 05:50:39;;;;;;;1.43;1.30;;;;;;;5.01;93.43;99786.09;5987121;29;20229;-77
2020/12/27 05:53:49;;;;;;;1.53;1.40;;;;;;;4.66;94.55;99768.41;5993617;29;20310;-77
2020/12/27 05:56:56;;;;;;;1.50;1.50;;;;;;;4.96;93.19;99777.78;5987564;29;20244;-77
2020/12/27 06:00:05;;;;;;;1.30;1.30;;;;;;;5.04;92.97;99777.59;5996461;29;20213;-77
2020/12/27 06:03:55;;;;;;;3.50;1.40;;;;;;;5.08;92.65;99765.31;5990299;29;20283;-77
2020/12/27 06:07:05;;;;;;;1.80;1.70;;;;;;;5.18;92.07;99759.50;6006557;29;20216;-79
2020/12/27 06:10:21;;;;;;;2.33;1.67;;;;;;;5.03;93.21;99767.00;5980937;29;20360;-78
2020/12/27 06:14:21;;;;;;;1.93;1.57;;;;;;;5.02;91.99;99755.34;5988879;29;20599;-79
2020/12/27 06:18:08;;;;;;;1.50;1.50;;;;;;;5.02;91.92;99749.09;6007312;29;20261;-77
2020/12/27 06:21:38;;;;;;;1.20;1.20;;;;;;;5.18;92.03;99778.44;5989765;29;20625;-77
2020/12/27 06:24:42;;;;;;;1.20;1.20;;;;;;;5.19;91.77;99771.16;5995807;29;20575;-77
2020/12/27 06:27:47;;;;;;;1.43;1.43;;;;;;;5.14;92.71;99762.81;5990392;29;20268;-78
2020/12/27 06:30:57;;;;;;;6.23;1.37;;;;;;;4.91;93.00;99758.66;5991623;29;20224;-78
2020/12/27 06:34:18;;;;;;;1.30;1.30;;;;;;;5.09;93.03;99755.34;6001355;29;20212;-77
2020/12/27 06:37:26;;;;;;;1.10;1.10;;;;;;;5.21;92.25;99744.75;5982220;29;20266;-77
2020/12/27 06:40:58;;;;;;;1.43;1.30;;;;;;;5.14;91.21;99719.56;6019864;29;20252;-79
2020/12/27 06:44:39;;;;;;;1.60;1.37;;;;;;;4.87;92.44;99700.66;6000579;29;20685;-77
2020/12/27 06:47:48;;;;;;;3.80;1.70;;;;;;;5.02;92.61;99722.91;5994095;29;20226;-77
2020/12/27 06:51:01;;;;;;;1.30;1.30;;;;;;;4.98;93.04;99748.69;5994498;29;20243;-78
2020/12/27 06:54:06;;;;;;;2.13;1.47;;;;;;;4.91;92.90;99750.56;5991457;29;20208;-77
2020/12/27 06:57:40;;;;;;;1.30;1.30;;;;;;;5.07;92.69;99742.03;6002355;29;20246;-77
2020/12/27 07:01:12;;;;;;;1.53;1.33;;;;;;;4.99;93.68;99750.34;6006038;29;20213;-78
2020/12/27 07:04:18;;;;;;;3.20;1.37;;;;;;;5.08;93.16;99751.00;5997979;29;20580;-78
2020/12/27 07:07:45;;;;;;;1.50;1.47;;;;;;;5.07;93.13;99742.03;6007903;29;20206;-78
2020/12/27 07:10:51;;;;;;;1.10;1.10;;;;;;;5.00;92.45;99743.91;6014944;29;20627;-77
2020/12/27 07:13:56;;;;;;;2.33;1.50;;;;;;;5.14;92.58;99744.72;6002808;29;20213;-78
2020/12/27 07:17:05;;;;;;;1.60;1.30;;;;;;;5.14;92.25;99739.31;6014903;29;20606;-77
2020/12/27 07:20:15;;;;;;;1.17;1.17;;;;;;;5.08;92.46;99749.09;6012171;29;20289;-77
2020/12/27 07:23:24;;;;;;;1.50;1.40;;;;;;;4.99;93.23;99738.69;5998398;29;20222;-77
2020/12/27 07:26:32;;;;;;;1.10;1.10;;;;;;;5.13;92.39;99734.13;6004206;29;20213;-78
2020/12/27 07:29:35;;;;;;;1.30;1.30;;;;;;;5.11;93.15;99741.63;6006696;29;20296;-77
2020/12/27 07:32:41;;;;;;;2.23;1.27;;;;;;;5.16;92.41;99745.38;6004620;29;20210;-76
2020/12/27 07:35:45;;;;;;;1.50;1.50;;;;;;;5.12;93.03;99721.66;6007401;29;20215;-78
2020/12/27 07:39:00;;;;;;;1.67;1.33;;;;;;;5.07;93.27;99739.34;5997599;29;20221;-77
2020/12/27 07:42:04;;;;;;;3.40;1.60;;;;;;;5.04;93.80;99742.44;5995158;29;20234;-78
2020/12/27 07:45:12;;;;;;;1.90;1.90;;;;;;;5.16;92.38;99728.31;6009836;29;20235;-78
2020/12/27 07:48:17;;;;;;;3.57;1.63;;;;;;;4.99;93.00;99717.91;6030802;29;20229;-77
2020/12/27 07:51:23;;;;;;;1.80;1.57;;;;;;;5.04;92.46;99711.88;6004600;29;20288;-79
2020/12/27 07:54:26;;;;;;;2.60;1.70;;;;;;;4.97;92.55;99720.00;6003798;29;20225;-77
2020/12/27 07:57:29;;;;;;;4.93;1.60;;;;;;;5.01;92.05;99726.63;6003649;29;20239;-77
2020/12/27 08:00:34;;;;;;;2.50;1.53;;;;;;;4.70;92.35;99652.66;6006975;29;20252;-78
2020/12/27 08:03:42;;;;;;;1.73;1.60;;;;;;;5.19;91.07;99712.50;6003103;29;20366;-78
2020/12/27 08:06:47;;;;;;;2.00;1.90;;;;;;;5.37;90.22;99698.31;6004766;29;20677;-78
2020/12/27 08:09:50;;;;;;;4.37;2.13;;;;;;;5.21;91.10;99706.88;6007361;29;20265;-76
2020/12/27 08:12:58;;;;;;;2.67;2.20;;;;;;;4.87;92.02;99665.53;6004889;29;20326;-78
2020/12/27 08:16:01;;;;;;;2.43;2.00;;;;;;;5.18;91.14;99704.59;6002956;29;20348;-78
2020/12/27 08:19:08;;;;;;;4.43;2.10;;;;;;;5.02;90.51;99674.25;6001502;29;20236;-78
2020/12/27 08:22:21;;;;;;;2.10;2.00;;;;;;;5.36;89.61;99713.72;5995553;29;20226;-78
2020/12/27 08:25:24;;;;;;;1.90;1.87;;;;;;;5.23;90.29;99707.50;6000534;29;20327;-78
2020/12/27 08:28:27;;;;;;;1.60;1.60;;;;;;;5.36;89.30;99707.50;6002560;29;20212;-79
2020/12/27 08:31:31;;;;;;;1.90;1.80;;;;;;;5.18;90.20;99710.00;6000468;29;20205;-78
2020/12/27 08:34:34;;;;;;;4.10;2.10;;;;;;;5.20;89.95;99718.72;5995192;29;20205;-79
2020/12/27 08:37:42;;;;;;;2.00;1.90;;;;;;;5.12;89.37;99700.00;5994752;29;20759;-77
2020/12/27 08:40:47;;;;;;;3.20;2.10;;;;;;;5.24;89.52;99709.19;6001280;29;20259;-78
2020/12/27 08:44:22;;;;;;;2.30;1.90;;;;;;;5.35;89.34;99711.22;6003100;29;20313;-79
2020/12/27 08:47:44;;;;;;;2.67;2.57;;;;;;;5.34;90.00;99704.16;5994022;29;20202;-78
2020/12/27 08:50:55;;;;;;;6.73;2.40;;;;;;;5.28;89.93;99699.59;6015550;29;20235;-81
2020/12/27 08:54:00;;;;;;;4.13;2.50;;;;;;;5.39;90.19;99701.66;6026391;29;20594;-79
2020/12/27 08:57:07;;;;;;;3.13;2.83;;;;;;;5.25;90.71;99706.25;6013348;29;20646;-79
2020/12/27 09:00:12;;;;;;;3.53;3.03;;;;;;;5.42;89.82;99696.66;6006113;29;20209;-80
2020/12/27 09:03:28;;;;;;;3.80;2.90;;;;;;;5.29;90.49;99712.09;6012393;29;20224;-78
2020/12/27 09:06:31;;;;;;;2.90;2.80;;;;;;;5.39;90.57;99715.19;6005304;29;20380;-77
2020/12/27 09:09:35;;;;;;;3.60;2.80;;;;;;;5.30;89.58;99711.03;6007313;29;20636;-81
2020/12/27 09:12:40;;;;;;;2.83;2.70;;;;;;;5.43;89.98;99708.31;6016202;29;20217;-78
2020/12/27 09:15:45;;;;;;;3.90;2.67;;;;;;;5.44;90.07;99707.28;6007756;29;20261;-78
2020/12/27 09:18:49;;;;;;;6.30;2.83;;;;;;;5.35;90.78;99701.25;6007259;29;20209;-77
2020/12/27 09:21:53;;;;;;;2.60;2.50;;;;;;;5.53;90.58;99706.00;6011616;29;20230;-78
2020/12/27 09:25:06;;;;;;;3.80;3.30;;;;;;;5.47;91.10;99693.31;5998559;29;20225;-78
2020/12/27 09:28:14;;;;;;;5.17;3.27;;;;;;;5.51;91.35;99679.16;6005604;29;20658;-77
2020/12/27 09:31:22;;;;;;;5.13;3.87;;;;;;;5.19;92.48;99673.81;6008628;29;20208;-78
2020/12/27 09:34:26;;;;;;;4.20;3.90;;;;;;;5.46;93.07;99694.34;5992303;29;20223;-78
2020/12/27 09:37:33;;;;;;;8.80;4.30;;;;;;;5.34;93.42;99677.13;6002852;29;20288;-79
2020/12/27 09:40:37;;;;;;;7.43;4.70;;;;;;;5.49;93.16;99707.47;6003098;29;20221;-80
2020/12/27 09:43:50;;;;;;;5.30;4.30;;;;;;;5.58;92.97;99692.66;6004594;29;20223;-78
2020/12/27 09:46:55;;;;;;;9.40;4.17;;;;;;;5.62;92.24;99685.78;6006518;29;20201;-78
2020/12/27 09:50:00;;;;;;;6.83;3.97;;;;;;;5.65;90.95;99680.75;5994770;29;20281;-78
2020/12/27 09:53:07;;;;;;;4.93;3.93;;;;;;;5.66;90.80;99681.59;6002686;29;20246;-77
2020/12/27 09:56:11;;;;;;;5.70;3.40;;;;;;;5.68;89.97;99679.50;5994264;29;20245;-78
2020/12/27 09:59:16;;;;;;;3.37;3.07;;;;;;;5.65;89.71;99642.03;6014122;29;20206;-79
2020/12/27 10:02:21;;;;;;;3.70;3.40;;;;;;;5.56;89.24;99649.59;6008437;29;20221;-78
2020/12/27 10:05:24;;;;;;;3.50;3.20;;;;;;;5.67;89.44;99683.28;6004702;29;20197;-78
2020/12/27 10:08:27;;;;;;;3.90;3.60;;;;;;;5.64;90.61;99678.28;5997276;29;20319;-77
2020/12/27 10:11:31;;;;;;;3.90;3.70;;;;;;;5.65;90.82;99666.41;6006315;29;20680;-78
2020/12/27 10:14:35;;;;;;;6.90;3.70;;;;;;;5.55;91.42;99668.72;5985618;29;20210;-79
2020/12/27 10:17:38;;;;;;;8.40;4.03;;;;;;;5.67;90.69;99672.47;6011948;29;20205;-78
2020/12/27 10:20:41;;;;;;;4.07;3.63;;;;;;;5.62;91.48;99666.84;6014330;29;20213;-79
2020/12/27 10:23:44;;;;;;;7.80;4.17;;;;;;;5.55;91.48;99658.75;6004674;29;20279;-80
2020/12/27 10:26:49;;;;;;;11.97;5.53;;;;;;;5.57;92.28;99666.66;6010592;29;20315;-78
2020/12/27 10:29:52;;;;;;;8.57;4.63;;;;;;;5.57;92.43;99688.31;6009811;29;20352;-78
2020/12/27 10:32:56;;;;;;;5.27;3.80;;;;;;;5.66;92.13;99692.44;6008483;29;20579;-78
2020/12/27 10:36:00;;;;;;;7.57;3.67;;;;;;;5.64;91.60;99672.88;6005987;29;20211;-79
2020/12/27 10:39:03;;;;;;;9.27;3.80;;;;;;;5.65;91.47;99680.75;6005418;29;20210;-78
2020/12/27 10:42:09;;;;;;;7.73;3.53;;;;;;;5.67;90.94;99664.34;6005246;29;20202;-79
2020/12/27 10:45:14;;;;;;;4.90;3.07;;;;;;;5.72;90.47;99642.88;5997808;29;20651;-77
2020/12/27 10:48:23;;;;;;;5.40;3.30;;;;;;;5.78;90.24;99658.25;6004393;29;20238;-78
2020/12/27 10:51:27;;;;;;;3.60;3.30;;;;;;;5.75;90.54;99645.16;6009441;29;20722;-78
2020/12/27 10:54:30;;;;;;;6.20;4.10;;;;;;;5.76;90.57;99638.69;6010950;29;20221;-78
2020/12/27 10:57:35;;;;;;;4.73;3.60;;;;;;;5.70;90.46;99650.34;6000692;29;20607;-78
2020/12/27 11:00:38;;;;;;;4.63;3.53;;;;;;;5.93;90.13;99648.00;5996862;29;20211;-78
2020/12/27 11:03:46;;;;;;;6.03;3.73;;;;;;;5.49;91.17;99599.25;6019912;29;20220;-78
2020/12/27 11:06:50;;;;;;;4.27;3.80;;;;;;;5.75;91.91;99630.78;6009695;29;20330;-78
2020/12/27 11:09:53;;;;;;;4.80;3.70;;;;;;;5.72;91.81;99632.06;6001751;29;20216;-77
2020/12/27 11:12:57;;;;;;;4.97;3.70;;;;;;;5.58;92.56;99625.03;5999522;29;20367;-78
2020/12/27 11:16:00;;;;;;;5.33;3.27;;;;;;;5.55;93.30;99644.38;5987082;29;20210;-78
2020/12/27 11:19:05;;;;;;;3.30;3.10;;;;;;;5.63;92.94;99644.97;6002951;29;20745;-79
2020/12/27 11:22:10;;;;;;;10.50;3.30;;;;;;;5.70;93.47;99644.94;6000231;29;20234;-77
2020/12/27 11:25:15;;;;;;;3.97;2.57;;;;;;;5.70;93.59;99628.72;6001983;29;20245;-77
2020/12/27 11:28:19;;;;;;;8.03;2.97;;;;;;;5.67;94.60;99639.97;6006126;29;20292;-78
2020/12/27 11:31:23;;;;;;;5.33;3.27;;;;;;;5.84;93.44;99641.16;6004524;29;20206;-77
2020/12/27 11:34:26;;;;;;;5.43;3.20;;;;;;;5.79;94.04;99615.78;6002617;29;20308;-77
2020/12/27 11:37:30;;;;;;;4.77;3.20;;;;;;;5.65;95.14;99620.41;6002018;29;20229;-79
2020/12/27 11:40:33;;;;;;;3.60;3.30;;;;;;;5.65;94.86;99615.00;6011004;29;20213;-78
2020/12/27 11:43:37;;;;;;;6.53;3.53;;;;;;;5.67;95.09;99602.91;6003357;29;20282;-78
2020/12/27 11:46:41;;;;;;;3.63;3.43;;;;;;;5.54;95.68;99599.44;5990152;29;20389;-79
2020/12/27 11:49:45;;;;;;;4.97;3.30;;;;;;;5.40;95.85;99584.31;5984946;29;20282;-78
2020/12/27 11:52:49;;;;;;;6.63;3.13;;;;;;;5.71;94.69;99608.72;6013714;29;20214;-78
2020/12/27 11:55:52;;;;;;;4.50;3.10;;;;;;;5.62;94.99;99593.81;5996320;29;20240;-79
2020/12/27 11:58:56;;;;;;;3.57;3.27;;;;;;;5.53;94.93;99611.31;6005474;29;20201;-79
2020/12/27 12:02:00;;;;;;;3.70;3.40;;;;;;;5.58;95.35;99614.19;5996573;29;20272;-78
2020/12/27 12:05:03;;;;;;;4.40;3.00;;;;;;;5.75;94.07;99604.56;6010304;29;20713;-78
2020/12/27 12:08:11;;;;;;;4.20;2.90;;;;;;;5.77;94.36;99612.47;5999828;29;20294;-78
2020/12/27 12:11:15;;;;;;;4.67;3.00;;;;;;;5.62;95.63;99593.81;6025312;29;20214;-78
2020/12/27 12:14:19;;;;;;;4.43;3.00;;;;;;;5.52;96.61;99605.06;5989459;29;20272;-78
2020/12/27 12:17:25;;;;;;;6.37;3.30;;;;;;;5.55;95.81;99599.22;5990116;29;20633;-78
2020/12/27 12:23:48;;;;;;;6.37;3.10;;;;;;;5.68;94.10;99619.97;5993361;29;20289;-78
2020/12/27 12:26:52;;;;;;;7.07;3.63;;;;;;;5.55;94.63;99592.97;6004061;29;20728;-78
2020/12/27 12:29:57;;;;;;;3.10;2.90;;;;;;;5.63;95.10;99611.69;6002855;29;20354;-77
2020/12/27 12:33:00;;;;;;;10.30;3.20;;;;;;;5.52;95.88;99604.25;6005896;29;20222;-78
2020/12/27 12:36:03;;;;;;;4.20;2.77;;;;;;;5.86;94.01;99612.03;5996168;29;20499;-78
2020/12/27 12:39:08;;;;;;;6.90;2.73;;;;;;;5.75;95.13;99604.56;5997792;29;20214;-78
2020/12/27 12:42:14;;;;;;;2.27;2.17;;;;;;;5.82;94.93;99583.72;6001750;29;20288;-77
2020/12/27 12:45:18;;;;;;;4.90;2.83;;;;;;;5.67;94.50;99556.91;6005692;29;20567;-79
2020/12/27 12:48:25;;;;;;;2.77;2.50;;;;;;;5.61;95.49;99567.78;6001778;29;20213;-78
2020/12/27 12:51:28;;;;;;;2.23;2.00;;;;;;;5.76;94.76;99568.31;5993195;29;20322;-78
2020/12/27 12:54:31;;;;;;;6.43;2.20;;;;;;;5.61;95.95;99578.59;6000638;29;20218;-78
2020/12/27 12:57:34;;;;;;;3.83;2.80;;;;;;;5.81;95.04;99573.91;6011694;29;20241;-79
2020/12/27 13:00:39;;;;;;;5.27;2.47;;;;;;;5.81;94.84;99576.63;6008107;29;20214;-78
2020/12/27 13:03:43;;;;;;;4.50;2.63;;;;;;;5.93;94.14;99563.28;6001952;29;20301;-78
2020/12/27 13:06:47;;;;;;;5.73;2.93;;;;;;;5.73;94.80;99568.75;5999396;29;20201;-79
2020/12/27 13:09:51;;;;;;;4.40;3.10;;;;;;;5.82;94.66;99564.75;6002338;29;20206;-79
2020/12/27 13:13:10;;;;;;;4.10;3.20;;;;;;;5.68;94.47;99560.44;6008095;29;20272;-79
2020/12/27 13:16:14;;;;;;;10.87;3.97;;;;;;;5.66;94.40;99540.91;6015855;29;20206;-80
2020/12/27 13:19:17;;;;;;;15.43;4.43;;;;;;;5.76;94.30;99581.84;6011400;29;20218;-78
2020/12/27 13:22:20;;;;;;;10.67;4.10;;;;;;;5.93;93.11;99583.03;6007918;29;20293;-78
2020/12/27 13:25:24;;;;;;;10.47;4.17;;;;;;;5.91;92.16;99576.16;5999238;29;20274;-78
2020/12/27 13:28:27;;;;;;;9.17;4.40;;;;;;;5.78;93.20;99577.03;6002040;29;20211;-77
2020/12/27 13:31:37;;;;;;;8.73;4.00;;;;;;;5.75;92.78;99582.91;5997165;29;20697;-77
2020/12/27 13:34:42;;;;;;;7.73;4.27;;;;;;;5.79;92.80;99573.31;5997171;29;20314;-77
2020/12/27 13:37:45;;;;;;;8.60;4.00;;;;;;;5.72;91.62;99567.09;5994270;29;20232;-78
2020/12/27 13:40:49;;;;;;;9.27;4.00;;;;;;;5.90;91.30;99586.19;6001393;29;20213;-79
2020/12/27 13:43:53;;;;;;;7.53;3.87;;;;;;;5.90;91.07;99569.94;6004707;29;20221;-78
2020/12/27 13:46:57;;;;;;;11.87;3.80;;;;;;;5.82;91.33;99574.75;5994530;29;20277;-77
2020/12/27 13:50:00;;;;;;;10.77;4.10;;;;;;;5.42;90.75;99503.78;5996426;29;20219;-78
2020/12/27 13:53:05;;;;;;;10.53;4.40;;;;;;;5.73;91.42;99579.56;6004318;29;20214;-79
2020/12/27 13:56:13;;;;;;;10.37;4.33;;;;;;;5.75;91.24;99588.31;6011865;29;20623;-79
2020/12/27 13:59:16;;;;;;;7.57;4.23;;;;;;;5.54;91.67;99580.50;6005339;29;20206;-79
2020/12/27 14:02:20;;;;;;;10.73;4.03;;;;;;;5.79;89.93;99567.06;5999825;29;20206;-78
2020/12/27 14:05:24;;;;;;;8.57;4.53;;;;;;;5.58;89.88;99587.13;6002216;29;20225;-78
2020/12/27 14:08:28;;;;;;;8.10;4.33;;;;;;;5.54;89.60;99585.94;6003674;29;20215;-79
2020/12/27 14:11:31;;;;;;;10.33;4.97;;;;;;;5.60;88.22;99591.28;5997732;29;20369;-78
2020/12/27 14:14:34;;;;;;;13.60;4.07;;;;;;;5.69;87.83;99600.00;6005497;29;20226;-78
2020/12/27 14:17:39;;;;;;;7.73;3.73;;;;;;;5.58;87.48;99570.91;6004415;29;20208;-79
2020/12/27 14:20:42;;;;;;;4.53;3.70;;;;;;;5.68;85.43;99568.56;6005529;29;20194;-80
2020/12/27 14:23:47;;;;;;;8.67;3.80;;;;;;;5.64;85.78;99548.41;6015764;29;20225;-78
2020/12/27 14:26:51;;;;;;;7.13;3.93;;;;;;;5.60;86.54;99568.81;6003326;29;20219;-77
2020/12/27 14:29:56;;;;;;;9.30;3.53;;;;;;;5.56;86.36;99562.19;6010171;29;20663;-78
2020/12/27 14:33:00;;;;;;;10.27;3.83;;;;;;;5.62;85.16;99580.28;6002726;29;20212;-78
2020/12/27 14:36:05;;;;;;;7.10;3.73;;;;;;;5.54;84.98;99564.28;5999756;29;20558;-79
2020/12/27 14:39:08;;;;;;;9.83;3.73;;;;;;;5.58;84.25;99598.81;6008325;29;20210;-78
2020/12/27 14:42:12;;;;;;;6.73;3.80;;;;;;;5.47;84.63;99579.72;5996354;29;20216;-80
2020/12/27 14:45:16;;;;;;;11.97;4.20;;;;;;;5.54;84.52;99588.63;6007463;29;20226;-78
2020/12/27 14:48:25;;;;;;;9.03;4.53;;;;;;;5.49;84.60;99572.22;6002887;29;20290;-78
2020/12/27 14:51:28;;;;;;;9.20;3.53;;;;;;;5.42;84.12;99571.38;6004489;29;20238;-78
2020/12/27 14:54:32;;;;;;;6.90;3.90;;;;;;;5.33;83.77;99569.97;6001898;29;20209;-79
2020/12/27 14:57:36;;;;;;;7.97;3.27;;;;;;;5.21;83.28;99567.13;6003722;29;20235;-78
2020/12/27 15:00:39;;;;;;;7.90;4.03;;;;;;;5.42;83.87;99582.22;6001427;29;20692;-79